Country
Station

 

Weather  for  Boise, Boise Air Terminal  -  United States    United States

  
19 °C (66 °F)
    
 
 

Current METAR for Boise, Boise Air Terminal is :

KBOI 192053Z 29014G21KT 10SM CLR 19/M03 A2991 RMK AO2 PK WND 32026/2008 SLP117 T01891028 56010

 

This is a report for Boise, Boise Air Terminal - United States.
 
The report was made 34 minutes ago, at 20:53 UTC .
The wind was blowing at a speed of 7.2 meters per second (16.1 miles per hour) with gusts up to 10.8 meters per second (24.2 miles per hour) from west/northwest (290°).
 
The temperature was 19 °C (66 °F), with a dew-point at -3 °C (27 °F).
The atmospheric pressure was 1013 hPa (29.91 inHg).
The relative humidity was 22.3%.
 
The sky was clear.
 
The overall visibility was 16.1 kilometers (10.0 miles).
 

 
 
 
 

Country :   A   B   C   D   E   F   G   H   I   J   K   L   M   N   O   P   Q   R   S   T   U   V   W   Y   Z

 

Site Info  |  Disclaimer  |  Credits  |  Privacy
Contact us  |  Add to favorites
© 2013-2018 METARs - All rights reserved